Time;durP1;ratioP1;P1;durP2;ratioP2;P2;SDS_P1;SDS_P2;PMS_P1;PMS_P2;Temp;Humidity;BMP_temperature;BMP_pressure;BME280_temperature;BME280_humidity;BME280_pressure;Samples;Min_cycle;Max_cycle;Signal;HPM_P1;HPM_P2
2023/07/06 00:00:59;;;;;;;3.90;1.60;;;17.80;99.90;;;;;;5052767;28;20197;-63
2023/07/06 00:03:27;;;;;;;3.88;1.70;;;17.80;99.90;;;;;;5052546;28;20331;-64
2023/07/06 00:05:55;;;;;;;3.83;1.65;;;17.80;99.90;;;;;;5051014;28;20205;-62
2023/07/06 00:08:23;;;;;;;4.43;1.52;;;17.70;99.90;;;;;;5062355;28;20225;-63
2023/07/06 00:10:51;;;;;;;6.25;1.88;;;17.70;99.90;;;;;;5060539;28;20239;-62
2023/07/06 00:13:22;;;;;;;5.00;1.73;;;17.70;99.90;;;;;;5061352;28;20688;-64
2023/07/06 00:15:50;;;;;;;3.97;2.17;;;17.70;99.90;;;;;;5062617;28;20289;-65
2023/07/06 00:18:20;;;;;;;2.63;1.90;;;17.60;99.90;;;;;;5057206;28;20293;-63
2023/07/06 00:20:49;;;;;;;4.20;1.85;;;17.60;99.90;;;;;;5058379;28;20205;-61
2023/07/06 00:23:17;;;;;;;2.42;1.67;;;17.50;99.90;;;;;;5050532;28;20207;-63
2023/07/06 00:25:45;;;;;;;6.13;1.80;;;17.50;99.90;;;;;;5058443;28;20210;-62
2023/07/06 00:28:14;;;;;;;2.10;1.77;;;17.50;99.90;;;;;;5055455;28;20268;-62
2023/07/06 00:30:53;;;;;;;2.75;1.70;;;17.40;99.90;;;;;;5046014;28;20210;-62
2023/07/06 00:33:22;;;;;;;2.38;1.77;;;17.40;99.90;;;;;;5064997;28;20269;-61
2023/07/06 00:35:51;;;;;;;2.75;1.48;;;17.40;99.90;;;;;;5061378;28;20635;-62
2023/07/06 00:38:21;;;;;;;1.52;1.35;;;17.30;99.90;;;;;;5050998;28;20217;-63
2023/07/06 00:40:50;;;;;;;5.90;1.65;;;17.30;99.90;;;;;;5063134;28;20201;-63
2023/07/06 00:43:20;;;;;;;2.08;1.70;;;17.30;99.90;;;;;;5056206;28;20233;-63
2023/07/06 00:45:52;;;;;;;4.22;1.95;;;17.20;99.90;;;;;;5049287;28;20207;-62
2023/07/06 00:48:22;;;;;;;10.27;2.10;;;17.20;99.90;;;;;;5056730;28;20221;-64
2023/07/06 00:50:52;;;;;;;6.22;1.92;;;17.10;99.90;;;;;;5051526;28;20210;-64
2023/07/06 00:53:20;;;;;;;2.22;1.60;;;17.10;99.90;;;;;;5055442;28;20662;-61
2023/07/06 00:55:48;;;;;;;6.75;1.80;;;17.10;99.90;;;;;;5059811;28;20213;-63
2023/07/06 00:58:18;;;;;;;3.90;1.80;;;17.00;99.90;;;;;;5043202;28;20329;-62
2023/07/06 01:00:47;;;;;;;2.38;2.17;;;17.00;99.90;;;;;;5056605;28;20236;-63
2023/07/06 01:03:19;;;;;;;4.70;1.55;;;16.90;99.90;;;;;;5059770;28;20228;-62
2023/07/06 01:05:48;;;;;;;3.67;1.83;;;16.90;99.90;;;;;;5061478;28;20594;-62
2023/07/06 01:08:19;;;;;;;5.78;1.80;;;16.80;99.90;;;;;;5055368;28;20221;-64
2023/07/06 01:10:47;;;;;;;5.22;2.17;;;16.80;99.90;;;;;;5057228;28;20304;-63
2023/07/06 01:13:15;;;;;;;5.65;1.90;;;16.70;99.90;;;;;;5058575;28;20240;-62
2023/07/06 01:15:46;;;;;;;4.93;1.65;;;16.70;99.90;;;;;;5057221;28;20666;-64
2023/07/06 01:18:17;;;;;;;1.70;1.60;;;16.60;99.90;;;;;;5052128;28;20249;-63
2023/07/06 01:20:46;;;;;;;2.40;1.48;;;16.60;99.90;;;;;;5052948;28;20251;-62
2023/07/06 01:23:55;;;;;;;6.05;2.17;;;16.60;99.90;;;;;;5051592;28;20201;-63
2023/07/06 02:02:48;;;;;;;3.05;2.10;;;16.30;99.90;;;;;;5054514;28;20727;-62
2023/07/06 02:05:16;;;;;;;2.75;2.00;;;16.30;99.90;;;;;;5056273;28;20214;-62
2023/07/06 02:07:44;;;;;;;5.47;1.92;;;16.30;99.90;;;;;;5062059;28;20229;-61
2023/07/06 02:10:14;;;;;;;3.28;2.30;;;16.30;99.90;;;;;;5069642;28;20703;-62
2023/07/06 02:12:43;;;;;;;2.15;1.88;;;16.30;99.90;;;;;;5068835;28;20232;-62
2023/07/06 02:15:11;;;;;;;2.03;1.80;;;16.30;99.90;;;;;;5041651;28;20369;-62
2023/07/06 02:17:39;;;;;;;2.45;1.50;;;16.30;99.90;;;;;;5060144;28;20292;-62
2023/07/06 02:20:10;;;;;;;2.38;1.88;;;16.30;99.90;;;;;;5058742;28;20240;-62
2023/07/06 02:22:39;;;;;;;2.10;1.90;;;16.20;99.90;;;;;;5061627;28;20201;-61
2023/07/06 02:25:08;;;;;;;8.13;1.98;;;16.20;99.90;;;;;;5055241;28;20212;-60
2023/07/06 02:27:36;;;;;;;4.53;2.05;;;16.20;99.90;;;;;;5058689;28;20284;-61
2023/07/06 02:30:05;;;;;;;6.45;1.60;;;16.10;99.90;;;;;;5068551;28;20324;-61
2023/07/06 02:32:33;;;;;;;1.98;1.73;;;16.20;99.90;;;;;;5059609;28;20237;-61
2023/07/06 02:35:02;;;;;;;5.22;1.80;;;16.10;99.90;;;;;;5050250;28;20201;-62
2023/07/06 02:37:31;;;;;;;7.03;2.00;;;16.10;99.90;;;;;;5037765;28;20663;-61
2023/07/06 02:40:00;;;;;;;7.63;1.75;;;16.00;99.90;;;;;;5042345;28;20308;-61
2023/07/06 02:42:28;;;;;;;3.13;1.92;;;16.00;99.90;;;;;;5043086;28;20202;-61
2023/07/06 02:44:57;;;;;;;3.55;1.73;;;15.90;99.90;;;;;;5048907;28;20212;-61
2023/07/06 02:47:27;;;;;;;3.08;2.00;;;15.90;99.90;;;;;;5037613;28;20206;-60
2023/07/06 02:49:55;;;;;;;2.92;2.03;;;15.80;99.90;;;;;;5047853;28;20227;-60
2023/07/06 02:52:23;;;;;;;4.20;1.55;;;15.80;99.90;;;;;;5049859;28;20653;-61
2023/07/06 02:54:53;;;;;;;3.72;1.70;;;15.70;99.90;;;;;;5039642;28;20245;-60
2023/07/06 02:57:21;;;;;;;3.83;2.05;;;15.70;99.90;;;;;;5050662;28;20259;-61
2023/07/06 02:59:51;;;;;;;3.92;2.05;;;15.60;99.90;;;;;;5039447;28;20658;-61
2023/07/06 03:02:18;;;;;;;1.70;1.60;;;15.60;99.90;;;;;;5044988;28;20293;-61
2023/07/06 03:04:46;;;;;;;4.35;1.67;;;15.60;99.90;;;;;;5047697;28;20218;-61
2023/07/06 03:07:15;;;;;;;2.33;1.77;;;15.60;99.90;;;;;;5061005;28;20237;-62
2023/07/06 03:09:44;;;;;;;5.30;1.63;;;15.60;99.90;;;;;;5058769;28;20615;-61
2023/07/06 03:12:14;;;;;;;4.60;1.75;;;15.60;99.90;;;;;;5059039;28;20202;-61
2023/07/06 03:14:46;;;;;;;3.88;1.80;;;15.60;99.90;;;;;;5054992;28;20208;-63
2023/07/06 03:17:14;;;;;;;1.60;1.50;;;15.50;99.90;;;;;;5049818;28;20209;-61
2023/07/06 03:19:42;;;;;;;5.95;1.90;;;15.50;99.90;;;;;;5057580;28;20218;-62
2023/07/06 03:22:10;;;;;;;4.75;2.00;;;15.50;99.90;;;;;;5051217;28;20206;-62
2023/07/06 03:24:38;;;;;;;4.38;1.83;;;15.50;99.90;;;;;;5060554;28;20237;-62
2023/07/06 03:27:07;;;;;;;5.70;2.05;;;15.50;99.90;;;;;;5057532;28;20228;-63
2023/07/06 03:29:36;;;;;;;3.13;1.83;;;15.40;99.90;;;;;;5057620;28;20328;-61
2023/07/06 03:32:06;;;;;;;4.88;1.70;;;15.40;99.90;;;;;;5061036;28;20224;-61
2023/07/06 03:34:34;;;;;;;3.15;2.22;;;15.40;99.90;;;;;;5061411;28;20232;-61
2023/07/06 03:37:04;;;;;;;4.97;1.77;;;15.40;99.90;;;;;;5048761;28;20237;-61
2023/07/06 03:39:33;;;;;;;3.30;1.70;;;15.40;99.90;;;;;;5055663;28;20762;-61
2023/07/06 03:42:01;;;;;;;1.67;1.50;;;15.40;99.90;;;;;;5038083;28;20230;-62
2023/07/06 03:44:29;;;;;;;3.50;1.90;;;15.40;99.90;;;;;;5044092;28;20292;-61
2023/07/06 03:47:01;;;;;;;3.45;2.00;;;15.40;99.90;;;;;;5047216;28;20229;-62
2023/07/06 03:49:34;;;;;;;2.75;1.77;;;15.40;99.90;;;;;;5057709;28;20316;-61
2023/07/06 03:52:02;;;;;;;3.88;1.80;;;15.40;99.90;;;;;;5055710;28;20289;-61
2023/07/06 03:54:31;;;;;;;3.90;1.80;;;15.40;99.90;;;;;;5062121;28;20624;-63
2023/07/06 03:56:59;;;;;;;3.20;1.95;;;15.40;99.90;;;;;;5048578;28;20675;-61
2023/07/06 03:59:31;;;;;;;5.32;1.58;;;15.40;99.90;;;;;;5059451;28;20261;-61
2023/07/06 04:02:00;;;;;;;2.90;1.90;;;15.50;99.90;;;;;;5051619;28;20292;-61
2023/07/06 04:04:28;;;;;;;3.25;2.03;;;15.40;99.90;;;;;;5053753;28;20202;-62
2023/07/06 04:06:56;;;;;;;3.50;1.85;;;15.40;99.90;;;;;;5063056;28;20283;-61
2023/07/06 04:09:26;;;;;;;3.35;1.90;;;15.40;99.90;;;;;;5054180;28;20257;-61
2023/07/06 04:11:53;;;;;;;3.63;1.70;;;15.40;99.90;;;;;;5064772;28;20233;-62
2023/07/06 04:14:25;;;;;;;4.45;1.58;;;15.40;99.90;;;;;;5041810;28;20225;-61
2023/07/06 04:16:54;;;;;;;2.95;1.65;;;15.40;99.90;;;;;;5063099;28;20593;-61
2023/07/06 04:19:23;;;;;;;2.63;1.63;;;15.40;99.90;;;;;;5054771;28;20284;-60
2023/07/06 04:21:51;;;;;;;2.15;1.35;;;15.70;99.90;;;;;;5052926;28;20286;-58
2023/07/06 04:24:19;;;;;;;6.65;1.88;;;16.20;99.90;;;;;;5047939;28;20693;-59
2023/07/06 04:26:47;;;;;;;3.25;1.60;;;16.80;99.90;;;;;;5048884;28;20210;-59
2023/07/06 04:29:15;;;;;;;1.58;1.48;;;17.20;99.90;;;;;;5050212;28;20271;-60
2023/07/06 04:31:44;;;;;;;3.50;1.65;;;17.50;99.90;;;;;;5054060;28;20198;-59
2023/07/06 04:34:12;;;;;;;2.88;1.70;;;17.80;99.90;;;;;;5053228;28;20201;-59
2023/07/06 04:36:45;;;;;;;3.20;1.67;;;18.00;99.90;;;;;;5051061;28;20296;-59
2023/07/06 04:39:13;;;;;;;13.13;3.40;;;18.10;99.90;;;;;;5061866;28;20696;-61
2023/07/06 04:41:43;;;;;;;10.52;2.70;;;18.20;99.90;;;;;;5032290;28;20237;-59
2023/07/06 04:44:11;;;;;;;9.48;3.70;;;18.20;99.90;;;;;;5042068;28;20202;-59
2023/07/06 04:46:40;;;;;;;4.53;1.90;;;18.20;99.90;;;;;;5063426;28;20291;-60
2023/07/06 04:49:07;;;;;;;4.45;1.95;;;18.20;99.90;;;;;;5048205;28;20229;-60
2023/07/06 04:51:36;;;;;;;3.35;1.85;;;18.30;99.90;;;;;;5035146;28;20221;-60
2023/07/06 04:54:05;;;;;;;4.00;1.92;;;18.30;99.90;;;;;;5044317;28;20253;-60
2023/07/06 04:56:35;;;;;;;2.15;1.48;;;18.30;99.90;;;;;;5043340;28;20683;-60
2023/07/06 04:59:04;;;;;;;5.03;1.55;;;18.30;99.90;;;;;;5052536;28;20274;-59
2023/07/06 05:01:31;;;;;;;3.35;1.88;;;18.30;99.90;;;;;;5053159;28;20289;-61
2023/07/06 05:04:01;;;;;;;8.27;1.83;;;18.30;99.90;;;;;;5031554;28;20752;-61
2023/07/06 05:06:29;;;;;;;4.15;1.70;;;18.40;99.90;;;;;;5042450;28;20212;-59
2023/07/06 05:08:57;;;;;;;3.30;1.83;;;18.40;99.90;;;;;;5049512;28;20270;-59
2023/07/06 05:11:26;;;;;;;3.83;2.00;;;18.40;99.90;;;;;;5057688;28;20225;-59
2023/07/06 05:13:54;;;;;;;5.28;2.67;;;18.40;99.90;;;;;;5063166;28;20212;-60
2023/07/06 05:16:22;;;;;;;3.30;1.42;;;18.50;99.90;;;;;;5062289;28;20201;-59
2023/07/06 05:18:51;;;;;;;4.03;1.60;;;18.50;99.90;;;;;;5057182;28;20296;-59
2023/07/06 05:21:19;;;;;;;4.78;2.10;;;18.40;99.90;;;;;;5035499;28;20292;-59
2023/07/06 05:23:47;;;;;;;4.90;1.73;;;18.30;99.90;;;;;;5047933;28;20646;-59
2023/07/06 05:26:15;;;;;;;6.13;1.80;;;18.20;99.90;;;;;;5051062;28;20233;-60
2023/07/06 05:28:44;;;;;;;1.88;1.70;;;18.10;99.90;;;;;;5051231;28;20233;-59
2023/07/06 05:31:12;;;;;;;1.77;1.63;;;17.90;99.90;;;;;;5040112;28;20594;-55
2023/07/06 05:33:40;;;;;;;4.03;1.63;;;17.80;99.90;;;;;;5043576;28;20216;-56
2023/07/06 05:36:08;;;;;;;3.80;1.50;;;17.80;99.90;;;;;;5048566;28;20288;-56
2023/07/06 05:38:36;;;;;;;1.35;1.25;;;17.80;99.90;;;;;;5041585;28;20198;-54
2023/07/06 05:41:04;;;;;;;2.05;1.70;;;17.80;99.90;;;;;;5051528;28;20197;-54
2023/07/06 05:43:32;;;;;;;2.33;1.58;;;17.80;99.90;;;;;;5047987;28;20202;-55
2023/07/06 05:46:01;;;;;;;2.13;1.83;;;17.80;99.90;;;;;;5038315;28;20227;-54
2023/07/06 05:48:30;;;;;;;4.32;1.77;;;17.80;99.90;;;;;;5051237;28;20645;-55
2023/07/06 05:50:58;;;;;;;2.90;1.80;;;17.70;99.90;;;;;;5036287;28;20272;-56
2023/07/06 05:53:27;;;;;;;2.95;1.65;;;17.60;99.90;;;;;;5047787;28;20236;-55
2023/07/06 05:55:55;;;;;;;3.22;1.85;;;17.60;99.90;;;;;;5037268;28;20270;-56
2023/07/06 05:58:23;;;;;;;3.90;1.35;;;17.60;99.90;;;;;;5045551;28;20202;-56
2023/07/06 06:00:52;;;;;;;2.90;1.88;;;17.70;99.90;;;;;;5048633;28;20692;-57
2023/07/06 06:03:22;;;;;;;5.47;1.65;;;17.70;99.90;;;;;;5048667;28;20310;-55
2023/07/06 06:05:52;;;;;;;1.88;1.35;;;17.80;99.90;;;;;;5047675;28;20244;-62
2023/07/06 06:08:20;;;;;;;6.13;1.75;;;17.80;99.90;;;;;;5051053;28;20301;-62
2023/07/06 06:10:49;;;;;;;4.47;1.40;;;17.70;99.90;;;;;;5050606;28;20217;-62
2023/07/06 06:13:18;;;;;;;6.40;1.52;;;17.70;99.90;;;;;;5045598;28;20210;-62
2023/07/06 06:15:47;;;;;;;7.13;1.65;;;17.60;99.90;;;;;;5048190;28;20244;-61
2023/07/06 06:18:15;;;;;;;4.45;2.00;;;17.60;99.90;;;;;;5040076;28;20198;-62
2023/07/06 06:20:45;;;;;;;2.65;1.48;;;17.50;99.90;;;;;;5041325;28;20655;-62
2023/07/06 06:23:13;;;;;;;7.03;1.67;;;17.50;99.90;;;;;;5032258;28;20690;-62
2023/07/06 06:25:41;;;;;;;1.85;1.23;;;17.50;99.90;;;;;;5044298;28;20249;-62
2023/07/06 06:28:09;;;;;;;3.72;1.40;;;17.50;99.90;;;;;;5039137;28;20216;-61
2023/07/06 06:30:38;;;;;;;6.78;1.83;;;17.50;99.90;;;;;;5041510;28;20226;-61
2023/07/06 06:33:06;;;;;;;3.92;1.58;;;17.60;99.90;;;;;;5049079;28;20202;-61
2023/07/06 06:35:34;;;;;;;4.30;1.45;;;17.60;99.90;;;;;;5037679;28;20251;-62
2023/07/06 06:38:05;;;;;;;4.57;1.48;;;17.60;99.90;;;;;;5046881;28;20241;-62
2023/07/06 06:40:36;;;;;;;4.75;1.55;;;17.70;99.90;;;;;;5046357;28;20221;-61
2023/07/06 06:43:04;;;;;;;5.07;1.63;;;17.70;99.90;;;;;;5038502;28;20202;-61
2023/07/06 06:45:32;;;;;;;3.88;1.42;;;17.80;99.90;;;;;;5050506;28;20230;-61
2023/07/06 06:48:00;;;;;;;4.13;1.60;;;17.80;99.90;;;;;;5041388;28;20205;-62
2023/07/06 06:50:28;;;;;;;5.15;1.58;;;17.90;99.90;;;;;;5042899;28;20253;-62
2023/07/06 06:52:56;;;;;;;1.75;1.20;;;17.90;99.90;;;;;;5049230;28;20202;-61
2023/07/06 06:55:25;;;;;;;3.13;1.40;;;17.90;99.90;;;;;;5037369;28;20206;-61
2023/07/06 06:57:53;;;;;;;5.25;1.02;;;18.00;99.90;;;;;;5048121;28;20293;-62
2023/07/06 07:00:21;;;;;;;2.78;1.38;;;18.00;99.90;;;;;;5043661;28;20731;-62
2023/07/06 07:02:50;;;;;;;2.85;1.42;;;18.00;99.90;;;;;;5039610;28;20206;-61
2023/07/06 07:05:18;;;;;;;3.85;1.30;;;18.10;99.90;;;;;;5050435;28;20210;-61
2023/07/06 07:07:47;;;;;;;6.18;1.50;;;18.20;99.90;;;;;;5039112;28;20228;-61
2023/07/06 07:10:15;;;;;;;3.55;1.42;;;18.30;99.90;;;;;;5053862;28;20228;-62
2023/07/06 07:12:44;;;;;;;3.67;1.25;;;18.30;99.90;;;;;;5040889;28;20233;-62
2023/07/06 07:15:14;;;;;;;3.78;1.15;;;18.40;99.90;;;;;;5062750;28;20660;-62
2023/07/06 07:17:42;;;;;;;3.90;1.25;;;18.50;99.90;;;;;;5049409;28;20198;-61
2023/07/06 07:20:13;;;;;;;8.32;1.60;;;18.50;99.90;;;;;;5042342;28;20282;-61
2023/07/06 07:22:41;;;;;;;3.38;1.35;;;18.60;99.90;;;;;;5041078;28;20261;-62
2023/07/06 07:25:09;;;;;;;5.20;1.30;;;18.70;99.90;;;;;;5033223;28;20210;-62
2023/07/06 07:27:37;;;;;;;4.38;1.42;;;18.80;99.90;;;;;;5049621;28;20237;-62
2023/07/06 07:30:08;;;;;;;2.47;0.95;;;18.90;99.90;;;;;;5076327;22;20370;-72
2023/07/06 07:32:36;;;;;;;4.10;1.25;;;18.90;99.90;;;;;;5097513;28;20637;-72
2023/07/06 07:35:06;;;;;;;3.22;1.20;;;19.00;99.90;;;;;;5088983;28;20692;-72
2023/07/06 07:37:35;;;;;;;6.53;1.30;;;19.00;99.90;;;;;;5056796;28;20228;-72
2023/07/06 07:40:05;;;;;;;2.83;1.50;;;19.00;99.90;;;;;;5089551;28;20204;-72
2023/07/06 07:42:33;;;;;;;2.35;1.13;;;19.10;99.90;;;;;;5078046;28;20328;-72
2023/07/06 07:45:01;;;;;;;6.43;1.38;;;19.10;99.90;;;;;;5084678;28;20324;-72
2023/07/06 07:47:30;;;;;;;2.60;1.15;;;19.20;99.90;;;;;;5089867;28;20192;-72
2023/07/06 07:49:58;;;;;;;6.63;1.40;;;19.20;99.90;;;;;;5089672;28;20204;-71
2023/07/06 07:52:28;;;;;;;1.52;1.00;;;19.30;99.90;;;;;;5089835;28;20311;-72
2023/07/06 07:54:56;;;;;;;4.28;1.30;;;19.40;99.90;;;;;;5089147;28;20204;-71
2023/07/06 07:57:24;;;;;;;3.25;1.30;;;19.50;99.90;;;;;;5090247;28;20227;-72
2023/07/06 07:59:52;;;;;;;2.38;1.20;;;19.60;99.90;;;;;;5089561;28;20189;-72
2023/07/06 08:02:20;;;;;;;9.25;1.13;;;19.60;99.90;;;;;;5089285;28;20247;-72
2023/07/06 08:04:50;;;;;;;1.75;1.10;;;19.70;99.90;;;;;;5088743;28;20214;-72
2023/07/06 08:07:18;;;;;;;2.55;1.13;;;19.80;99.90;;;;;;5089108;28;20652;-72
2023/07/06 08:09:45;;;;;;;1.75;1.10;;;19.90;99.90;;;;;;5091267;28;20235;-72
2023/07/06 08:12:13;;;;;;;4.20;1.15;;;20.00;99.90;;;;;;5092276;28;20648;-72
2023/07/06 08:14:42;;;;;;;3.28;1.10;;;20.10;99.90;;;;;;5081420;28;20238;-72
2023/07/06 08:17:10;;;;;;;3.30;1.00;;;20.20;99.90;;;;;;5087439;28;20265;-72
2023/07/06 08:19:38;;;;;;;1.30;0.95;;;20.30;99.90;;;;;;5090352;28;20197;-72
2023/07/06 08:22:29;;;;;;;3.10;1.00;;;20.30;99.90;;;;;;5073564;22;20232;-55
2023/07/06 08:24:58;;;;;;;1.85;0.70;;;20.30;99.90;;;;;;5063048;28;20212;-58
2023/07/06 08:27:26;;;;;;;3.58;0.70;;;20.40;99.90;;;;;;5055001;28;20236;-58
2023/07/06 08:29:54;;;;;;;3.63;0.88;;;20.50;99.90;;;;;;5055921;28;20245;-58
2023/07/06 08:32:22;;;;;;;1.85;0.60;;;20.60;99.90;;;;;;5061712;28;20311;-59
2023/07/06 08:34:51;;;;;;;1.33;0.65;;;20.70;99.90;;;;;;5069815;28;20254;-57
2023/07/06 08:37:19;;;;;;;0.60;0.60;;;20.80;99.90;;;;;;5070263;28;20213;-55
2023/07/06 08:39:48;;;;;;;0.82;0.82;;;20.90;99.90;;;;;;5069774;28;20235;-58
2023/07/06 08:42:18;;;;;;;0.75;0.73;;;21.00;99.90;;;;;;5055289;28;20247;-58
2023/07/06 08:44:50;;;;;;;1.85;0.70;;;21.10;99.90;;;;;;5054884;28;20211;-59
2023/07/06 08:47:18;;;;;;;0.55;0.55;;;21.20;99.90;;;;;;5056621;28;20213;-57
2023/07/06 08:49:46;;;;;;;0.93;0.60;;;21.20;99.90;;;;;;5058972;28;20232;-59
2023/07/06 08:52:14;;;;;;;1.92;0.70;;;21.30;99.90;;;;;;5058104;28;20217;-59
2023/07/06 08:54:50;;;;;;;5.68;0.90;;;21.40;99.90;;;;;;5064461;28;20254;-60
2023/07/06 08:57:22;;;;;;;0.70;0.70;;;21.50;99.90;;;;;;5061567;28;20588;-58
2023/07/06 08:59:51;;;;;;;0.65;0.63;;;21.60;99.90;;;;;;5049950;28;20225;-58
2023/07/06 09:02:20;;;;;;;0.82;0.80;;;21.70;99.90;;;;;;5050914;28;20209;-59
2023/07/06 09:04:50;;;;;;;0.85;0.70;;;21.80;99.90;;;;;;5052826;28;20209;-58
2023/07/06 09:07:19;;;;;;;1.92;0.90;;;21.90;99.90;;;;;;5053606;28;20198;-58
2023/07/06 09:09:47;;;;;;;1.10;0.70;;;22.00;99.90;;;;;;5051323;28;20791;-58
2023/07/06 09:12:20;;;;;;;1.38;0.55;;;22.10;99.90;;;;;;5047981;28;20730;-58
2023/07/06 09:14:51;;;;;;;2.05;0.60;;;22.30;99.90;;;;;;5054664;28;20229;-57
2023/07/06 09:17:18;;;;;;;1.05;0.60;;;22.30;99.70;;;;;;5069284;28;20208;-58
2023/07/06 09:19:47;;;;;;;1.95;1.05;;;22.40;98.50;;;;;;5071380;28;20224;-58
2023/07/06 09:22:15;;;;;;;3.38;0.80;;;22.40;99.40;;;;;;5057081;28;20209;-58
2023/07/06 09:24:45;;;;;;;0.60;0.60;;;22.50;98.30;;;;;;5052961;28;20213;-57
2023/07/06 09:27:17;;;;;;;0.80;0.80;;;22.60;97.20;;;;;;5055636;28;20201;-60
2023/07/06 09:29:56;;;;;;;1.13;0.82;;;22.70;97.60;;;;;;5071396;28;20258;-58
2023/07/06 09:32:24;;;;;;;1.42;0.93;;;22.80;97.60;;;;;;5071243;28;20221;-58
2023/07/06 09:34:55;;;;;;;1.90;0.70;;;22.80;97.00;;;;;;5070887;28;20204;-59
2023/07/06 09:37:23;;;;;;;2.53;0.95;;;22.90;97.50;;;;;;5071462;28;20234;-58
2023/07/06 09:39:58;;;;;;;3.10;0.90;;;23.10;98.20;;;;;;5069945;28;20225;-59
2023/07/06 09:42:28;;;;;;;1.85;1.10;;;23.20;97.40;;;;;;5053120;28;20607;-58
2023/07/06 09:44:57;;;;;;;8.80;1.00;;;23.30;97.50;;;;;;5052776;28;20296;-59
2023/07/06 09:47:25;;;;;;;1.70;0.98;;;23.40;96.60;;;;;;5052739;28;20259;-59
2023/07/06 09:49:55;;;;;;;3.20;0.90;;;23.50;99.90;;;;;;5052380;28;20229;-59
2023/07/06 09:52:23;;;;;;;1.00;0.93;;;23.60;96.60;;;;;;5050354;28;20274;-59
2023/07/06 09:54:54;;;;;;;1.60;0.80;;;23.70;96.40;;;;;;5048077;28;20248;-59
2023/07/06 09:57:25;;;;;;;3.28;0.95;;;23.90;97.00;;;;;;5050741;28;20207;-59
2023/07/06 09:59:53;;;;;;;2.70;1.10;;;24.00;96.20;;;;;;5052532;28;20249;-59
2023/07/06 10:02:35;;;;;;;1.02;0.88;;;24.10;97.20;;;;;;5050366;28;20247;-59
2023/07/06 10:05:12;;;;;;;2.28;0.93;;;24.40;95.30;;;;;;5051585;28;20267;-59
2023/07/06 10:07:45;;;;;;;0.85;0.80;;;24.50;95.70;;;;;;5055235;28;20205;-60
2023/07/06 10:10:15;;;;;;;2.88;1.20;;;24.50;94.50;;;;;;5054670;28;20253;-60
2023/07/06 10:12:46;;;;;;;0.90;0.90;;;24.40;94.40;;;;;;5053718;28;20627;-59
2023/07/06 10:15:17;;;;;;;1.02;1.00;;;24.30;94.10;;;;;;5053644;28;20233;-59
2023/07/06 10:17:49;;;;;;;1.45;0.80;;;24.30;94.40;;;;;;5054516;28;20263;-59
2023/07/06 10:20:20;;;;;;;3.60;1.10;;;24.40;94.00;;;;;;5054207;28;20240;-60
2023/07/06 10:22:59;;;;;;;2.50;1.20;;;24.50;93.30;;;;;;5053280;28;20292;-59
2023/07/06 10:25:33;;;;;;;3.13;1.00;;;24.80;92.40;;;;;;5067974;28;20229;-59
2023/07/06 10:28:04;;;;;;;1.45;1.30;;;25.00;92.20;;;;;;5073601;28;20354;-59
2023/07/06 10:30:33;;;;;;;4.60;1.30;;;25.20;91.80;;;;;;5074379;28;20347;-59
2023/07/06 10:33:06;;;;;;;2.95;0.93;;;25.50;91.40;;;;;;5074329;28;20797;-59
2023/07/06 10:35:35;;;;;;;4.43;1.02;;;25.70;90.90;;;;;;5051969;28;20602;-60
2023/07/06 10:38:06;;;;;;;2.65;1.42;;;25.90;90.50;;;;;;5053238;28;20206;-61
2023/07/06 10:40:37;;;;;;;1.20;0.93;;;26.20;90.60;;;;;;5054785;28;20232;-60
2023/07/06 10:43:21;;;;;;;1.27;1.17;;;26.40;87.80;;;;;;5057309;28;20201;-59
2023/07/06 10:45:51;;;;;;;1.25;0.95;;;26.60;88.50;;;;;;5050184;28;20208;-60
2023/07/06 10:48:31;;;;;;;1.20;1.10;;;26.80;87.70;;;;;;5053040;28;20202;-60
2023/07/06 10:51:18;;;;;;;1.60;1.25;;;26.90;84.00;;;;;;5048885;28;20232;-60
2023/07/06 10:53:50;;;;;;;2.13;1.00;;;26.90;82.70;;;;;;5055086;28;20273;-59
2023/07/06 10:56:19;;;;;;;2.55;1.25;;;27.10;82.70;;;;;;5054610;28;20301;-59
2023/07/06 10:58:49;;;;;;;2.38;1.08;;;27.40;81.40;;;;;;5055690;28;20237;-59
2023/07/06 11:01:18;;;;;;;1.60;1.10;;;27.50;80.70;;;;;;5057428;28;20616;-59
2023/07/06 11:03:47;;;;;;;4.30;1.30;;;27.60;78.80;;;;;;5058367;28;20201;-59
2023/07/06 11:06:16;;;;;;;1.15;1.00;;;27.60;76.60;;;;;;5049599;28;20255;-60
2023/07/06 11:09:16;;;;;;;1.33;1.00;;;27.60;76.40;;;;;;5053765;28;20572;-60
2023/07/06 11:11:59;;;;;;;1.17;1.00;;;27.80;81.00;;;;;;5050942;28;20740;-59
2023/07/06 11:14:31;;;;;;;1.67;0.80;;;28.10;78.00;;;;;;5050633;28;20222;-59
2023/07/06 11:17:02;;;;;;;1.60;1.10;;;28.20;73.00;;;;;;5051739;28;20221;-60
2023/07/06 11:19:35;;;;;;;0.85;0.85;;;28.20;72.40;;;;;;5059348;28;20303;-57
2023/07/06 11:22:05;;;;;;;2.25;1.27;;;28.60;72.10;;;;;;5054056;28;20233;-57
2023/07/06 11:24:36;;;;;;;2.72;1.40;;;28.40;70.20;;;;;;5052628;28;20240;-58
2023/07/06 11:27:06;;;;;;;2.30;1.33;;;28.20;71.40;;;;;;5050857;28;20695;-57
2023/07/06 11:29:34;;;;;;;2.05;1.00;;;28.00;70.90;;;;;;5056049;28;20707;-57
2023/07/06 11:32:09;;;;;;;1.30;1.20;;;28.20;72.10;;;;;;5070729;28;20228;-57
2023/07/06 11:34:43;;;;;;;1.30;1.27;;;28.40;68.60;;;;;;5065200;28;20226;-58
2023/07/06 11:37:15;;;;;;;1.27;1.17;;;28.70;72.20;;;;;;5072345;28;20225;-58
2023/07/06 11:39:45;;;;;;;1.00;0.95;;;28.90;68.60;;;;;;5071834;28;20304;-58
2023/07/06 11:42:22;;;;;;;1.65;1.13;;;29.10;69.00;;;;;;5072900;28;20552;-58
2023/07/06 11:44:52;;;;;;;3.60;1.27;;;28.90;67.90;;;;;;5072620;28;20738;-58
2023/07/06 11:47:30;;;;;;;1.77;0.90;;;29.10;69.00;;;;;;5072870;28;20737;-60
2023/07/06 11:50:01;;;;;;;3.17;1.35;;;29.30;68.30;;;;;;5072862;28;20302;-60
2023/07/06 11:52:31;;;;;;;1.17;1.17;;;29.60;71.80;;;;;;5073152;28;20236;-59
2023/07/06 11:55:07;;;;;;;2.45;1.00;;;29.90;72.30;;;;;;5072754;28;20660;-59
2023/07/06 11:57:42;;;;;;;3.08;1.30;;;29.90;66.50;;;;;;5040365;28;20247;-59
2023/07/06 12:00:22;;;;;;;1.15;1.10;;;29.70;65.70;;;;;;5072954;28;20220;-60
2023/07/06 12:02:58;;;;;;;1.15;1.15;;;29.90;66.20;;;;;;5072677;28;20219;-59
2023/07/06 12:05:30;;;;;;;1.15;1.15;;;30.10;67.30;;;;;;5072852;28;20204;-60
2023/07/06 12:08:00;;;;;;;2.75;1.17;;;30.40;67.60;;;;;;5072925;28;20200;-60
2023/07/06 12:10:29;;;;;;;1.02;0.98;;;30.80;65.40;;;;;;5072855;28;20303;-60
2023/07/06 12:12:57;;;;;;;1.55;1.25;;;30.90;63.80;;;;;;5072683;28;20303;-60
2023/07/06 12:15:25;;;;;;;1.40;1.30;;;30.80;63.00;;;;;;5072081;28;20232;-61
2023/07/06 12:17:55;;;;;;;1.20;1.10;;;30.90;63.30;;;;;;5072710;28;20229;-60
2023/07/06 12:20:25;;;;;;;2.10;1.00;;;31.00;61.40;;;;;;5072314;28;20216;-60
2023/07/06 12:22:56;;;;;;;1.10;1.10;;;30.90;62.10;;;;;;5072475;28;20208;-60
2023/07/06 12:25:27;;;;;;;1.40;1.30;;;31.00;60.20;;;;;;5071082;28;20668;-60
2023/07/06 12:27:59;;;;;;;1.73;0.90;;;31.20;60.30;;;;;;5072197;28;20244;-60
2023/07/06 12:30:33;;;;;;;1.52;1.45;;;31.30;60.70;;;;;;5072110;28;20270;-61
2023/07/06 12:33:04;;;;;;;1.08;1.05;;;30.70;59.90;;;;;;5071765;28;20247;-60
2023/07/06 12:35:33;;;;;;;1.58;1.13;;;30.60;59.10;;;;;;5071824;28;20258;-60
2023/07/06 12:38:03;;;;;;;1.65;1.15;;;30.60;58.30;;;;;;5072352;28;20228;-60
2023/07/06 12:40:33;;;;;;;1.15;1.15;;;30.90;58.80;;;;;;5071923;28;20259;-60
2023/07/06 12:43:04;;;;;;;1.15;1.05;;;31.10;58.00;;;;;;5072217;28;20232;-60
2023/07/06 12:45:32;;;;;;;1.20;1.20;;;31.20;60.00;;;;;;5071612;28;20750;-60
2023/07/06 12:48:03;;;;;;;2.55;1.17;;;31.40;58.60;;;;;;5072013;28;20203;-60
2023/07/06 12:50:35;;;;;;;1.73;1.20;;;31.60;57.20;;;;;;5072062;28;20261;-60
2023/07/06 12:53:08;;;;;;;2.10;0.90;;;31.70;58.50;;;;;;5072092;28;20250;-60
2023/07/06 12:55:36;;;;;;;4.38;1.30;;;31.60;56.90;;;;;;5039369;28;20222;-58
2023/07/06 12:58:26;;;;;;;3.65;1.15;;;31.70;56.70;;;;;;5071794;28;20204;-58
2023/07/06 13:01:00;;;;;;;2.72;1.17;;;31.80;55.10;;;;;;5065742;28;20228;-59
2023/07/06 13:03:28;;;;;;;3.45;1.10;;;32.10;56.00;;;;;;5071738;28;20245;-57
2023/07/06 13:05:56;;;;;;;1.60;1.02;;;32.10;54.90;;;;;;5071372;28;20244;-58
2023/07/06 13:08:26;;;;;;;2.97;1.25;;;32.10;54.30;;;;;;5071923;28;20200;-58
2023/07/06 13:11:00;;;;;;;1.40;1.30;;;32.40;56.30;;;;;;5071691;28;20225;-58
2023/07/06 13:13:28;;;;;;;1.13;1.00;;;32.60;54.90;;;;;;5071317;28;20201;-58
2023/07/06 13:16:01;;;;;;;1.80;1.40;;;32.70;54.50;;;;;;5070800;28;20269;-58
2023/07/06 13:18:29;;;;;;;1.75;1.23;;;32.40;54.30;;;;;;5071667;28;20288;-58
2023/07/06 13:20:57;;;;;;;2.80;1.23;;;32.20;54.10;;;;;;5071457;28;20221;-58
2023/07/06 13:23:28;;;;;;;1.27;0.90;;;32.20;54.60;;;;;;5071100;28;20223;-58
2023/07/06 13:25:56;;;;;;;2.35;1.10;;;32.20;54.70;;;;;;5066668;28;20230;-58
2023/07/06 13:28:24;;;;;;;6.63;1.30;;;32.20;54.40;;;;;;5062895;28;20208;-57
2023/07/06 13:30:52;;;;;;;2.58;1.10;;;32.20;54.50;;;;;;5094576;22;20239;-62
2023/07/06 13:33:20;;;;;;;1.15;1.15;;;32.30;54.40;;;;;;5108295;28;20199;-61
2023/07/06 13:35:48;;;;;;;1.10;1.10;;;32.40;55.00;;;;;;5091511;28;20196;-61